Time;durP1;ratioP1;P1;durP2;ratioP2;P2;SDS_P1;SDS_P2;PMS_P1;PMS_P2;Temp;Humidity;BMP_temperature;BMP_pressure;BME280_temperature;BME280_humidity;BME280_pressure;Samples;Min_cycle;Max_cycle;Signal;HPM_P1;HPM_P2
2021/05/28 00:01:35;;;;;;;0.17;0.17;;;11.30;99.20;;;;;;5075317;28;20440;-72
2021/05/28 00:04:01;;;;;;;0.20;0.20;;;11.40;98.70;;;;;;5075361;28;20024;-72
2021/05/28 00:06:28;;;;;;;0.10;0.10;;;11.40;98.70;;;;;;5075275;28;20021;-72
2021/05/28 00:08:54;;;;;;;0.20;0.20;;;11.40;99.90;;;;;;5057270;28;20119;-72
2021/05/28 00:11:20;;;;;;;0.20;0.20;;;11.50;99.90;;;;;;5075123;28;20103;-73
2021/05/28 00:13:46;;;;;;;0.20;0.20;;;11.50;99.90;;;;;;5075169;28;20480;-72
2021/05/28 00:16:12;;;;;;;0.20;0.20;;;11.60;99.90;;;;;;5075171;28;20025;-72
2021/05/28 00:18:37;;;;;;;0.20;0.20;;;11.50;99.90;;;;;;5075008;28;20434;-72
2021/05/28 00:21:04;;;;;;;0.20;0.20;;;11.40;99.90;;;;;;5074908;28;20384;-72
2021/05/28 00:23:29;;;;;;;0.20;0.20;;;11.50;99.90;;;;;;5075027;28;20082;-72
2021/05/28 00:25:55;;;;;;;0.20;0.20;;;11.50;99.90;;;;;;5056985;28;20392;-71
2021/05/28 00:28:21;;;;;;;0.20;0.20;;;11.50;99.90;;;;;;5074913;28;20024;-72
2021/05/28 00:30:47;;;;;;;0.13;0.13;;;11.40;99.90;;;;;;5074716;28;20032;-72
2021/05/28 00:33:12;;;;;;;0.20;0.20;;;11.40;99.90;;;;;;5057092;28;20384;-72
2021/05/28 00:35:41;;;;;;;0.10;0.10;;;11.50;99.90;;;;;;5074616;28;20029;-72
2021/05/28 00:38:07;;;;;;;0.20;0.20;;;11.50;99.90;;;;;;5056686;28;20484;-72
2021/05/28 00:40:33;;;;;;;0.20;0.20;;;11.40;99.90;;;;;;5056794;28;20032;-72
2021/05/28 00:42:59;;;;;;;0.20;0.20;;;11.40;99.90;;;;;;5056608;28;20047;-72
2021/05/28 00:45:24;;;;;;;0.20;0.20;;;11.30;99.90;;;;;;5074540;28;20032;-72
2021/05/28 00:47:50;;;;;;;0.20;0.20;;;11.30;99.90;;;;;;5056710;28;20498;-72
2021/05/28 00:50:16;;;;;;;0.10;0.10;;;11.40;99.90;;;;;;5074399;28;20037;-72
2021/05/28 00:52:42;;;;;;;0.20;0.20;;;11.50;99.90;;;;;;5074497;28;20055;-72
2021/05/28 00:55:08;;;;;;;0.50;0.50;;;11.70;99.60;;;;;;5056530;28;20101;-72
2021/05/28 00:57:35;;;;;;;0.17;0.17;;;11.70;98.50;;;;;;5055398;28;20553;-72
2021/05/28 01:00:04;;;;;;;0.20;0.20;;;11.40;97.90;;;;;;5074156;28;20067;-72
2021/05/28 01:02:29;;;;;;;0.10;0.10;;;11.40;98.00;;;;;;5074206;28;20016;-72
2021/05/28 01:04:55;;;;;;;0.30;0.30;;;11.30;97.20;;;;;;5074199;28;20031;-72
2021/05/28 01:07:21;;;;;;;0.38;0.38;;;11.20;98.40;;;;;;5056181;28;20083;-72
2021/05/28 01:09:47;;;;;;;0.20;0.20;;;11.30;98.50;;;;;;5074112;28;20476;-72
2021/05/28 01:12:13;;;;;;;0.20;0.20;;;11.00;98.90;;;;;;5073955;28;20051;-72
2021/05/28 01:14:39;;;;;;;0.20;0.20;;;10.90;99.90;;;;;;5074064;28;20020;-72
2021/05/28 01:17:05;;;;;;;0.20;0.20;;;10.70;99.90;;;;;;5073918;28;20028;-72
2021/05/28 01:19:31;;;;;;;0.17;0.17;;;10.60;99.90;;;;;;5073905;28;20479;-71
2021/05/28 01:22:05;;;;;;;0.10;0.10;;;10.70;99.90;;;;;;5073749;28;20100;-72
2021/05/28 01:24:31;;;;;;;0.20;0.20;;;10.70;99.90;;;;;;5073829;28;20056;-72
2021/05/28 01:26:57;;;;;;;0.20;0.20;;;10.90;99.90;;;;;;5055720;28;20025;-72
2021/05/28 01:29:23;;;;;;;0.15;0.15;;;10.90;99.90;;;;;;5073826;28;20021;-72
2021/05/28 01:31:49;;;;;;;0.20;0.20;;;10.80;99.90;;;;;;5073522;28;20131;-72
2021/05/28 01:34:15;;;;;;;0.20;0.20;;;10.90;99.90;;;;;;5055714;28;20020;-72
2021/05/28 01:36:40;;;;;;;0.20;0.20;;;10.80;99.90;;;;;;5073876;28;20092;-72
2021/05/28 01:39:06;;;;;;;0.17;0.17;;;10.90;99.90;;;;;;5073483;28;20106;-72
2021/05/28 01:41:32;;;;;;;0.50;0.50;;;11.00;99.90;;;;;;5073401;28;20024;-72
2021/05/28 01:43:58;;;;;;;0.95;0.30;;;10.80;99.90;;;;;;5073409;28;20494;-72
2021/05/28 01:46:24;;;;;;;0.40;0.40;;;10.70;99.90;;;;;;5073325;28;20024;-72
2021/05/28 01:48:51;;;;;;;0.20;0.20;;;10.60;99.90;;;;;;5055299;28;20059;-72
2021/05/28 01:51:16;;;;;;;0.20;0.20;;;10.50;99.90;;;;;;5073141;28;20523;-72
2021/05/28 01:53:42;;;;;;;0.20;0.20;;;10.60;99.90;;;;;;5073292;28;20056;-72
2021/05/28 01:56:08;;;;;;;0.20;0.20;;;10.60;99.90;;;;;;5073227;28;20098;-72
2021/05/28 01:58:34;;;;;;;0.55;0.55;;;10.60;99.90;;;;;;5073072;28;20024;-72
2021/05/28 02:00:59;;;;;;;0.10;0.10;;;10.60;99.90;;;;;;5072808;28;20434;-72
2021/05/28 02:03:26;;;;;;;0.40;0.40;;;10.60;99.90;;;;;;5073227;28;20283;-72
2021/05/28 02:05:52;;;;;;;0.22;0.22;;;10.50;99.90;;;;;;5073296;28;20353;-72
2021/05/28 02:08:18;;;;;;;0.40;0.40;;;10.40;99.90;;;;;;5072868;28;20090;-72
2021/05/28 02:10:44;;;;;;;0.20;0.20;;;10.50;99.90;;;;;;5054946;28;20021;-72
2021/05/28 02:13:10;;;;;;;0.15;0.15;;;10.70;99.90;;;;;;5072924;28;20103;-72
2021/05/28 02:15:37;;;;;;;0.30;0.30;;;10.60;99.90;;;;;;5072880;28;20111;-72
2021/05/28 02:18:04;;;;;;;0.20;0.20;;;10.50;99.90;;;;;;5072745;28;20025;-72
2021/05/28 02:20:30;;;;;;;0.20;0.20;;;10.60;99.90;;;;;;5072723;28;20023;-72
2021/05/28 02:22:55;;;;;;;0.20;0.20;;;10.60;99.90;;;;;;5054787;28;20123;-72
2021/05/28 02:25:21;;;;;;;0.40;0.40;;;10.50;99.90;;;;;;5072628;28;20036;-72
2021/05/28 02:27:47;;;;;;;0.10;0.10;;;10.60;99.90;;;;;;5072608;28;20143;-72
2021/05/28 02:30:13;;;;;;;0.20;0.20;;;10.60;99.90;;;;;;5072564;28;20035;-72
2021/05/28 02:32:39;;;;;;;0.20;0.20;;;10.70;99.90;;;;;;5072567;28;20044;-72
2021/05/28 02:35:07;;;;;;;0.20;0.20;;;10.70;99.90;;;;;;5072512;28;20033;-72
2021/05/28 02:37:33;;;;;;;0.20;0.20;;;10.60;99.90;;;;;;5072357;28;20016;-72
2021/05/28 02:39:59;;;;;;;0.20;0.20;;;10.70;99.90;;;;;;5072510;28;20048;-72
2021/05/28 02:42:25;;;;;;;0.20;0.20;;;10.80;99.90;;;;;;5072396;28;20070;-72
2021/05/28 02:44:52;;;;;;;0.20;0.20;;;10.90;99.90;;;;;;5072449;28;20487;-72
2021/05/28 02:47:20;;;;;;;0.20;0.20;;;11.00;99.90;;;;;;5054436;28;20395;-72
2021/05/28 02:49:47;;;;;;;0.20;0.20;;;11.00;99.90;;;;;;5072490;28;20056;-72
2021/05/28 02:52:12;;;;;;;0.10;0.10;;;10.90;99.90;;;;;;5072622;28;20024;-72
2021/05/28 02:54:38;;;;;;;0.30;0.30;;;10.80;99.90;;;;;;5072354;28;20480;-72
2021/05/28 02:57:04;;;;;;;0.30;0.30;;;10.90;99.80;;;;;;5072247;28;20024;-72
2021/05/28 02:59:30;;;;;;;0.20;0.20;;;10.80;99.80;;;;;;5072177;28;20043;-72
2021/05/28 03:01:55;;;;;;;0.13;0.13;;;10.80;99.90;;;;;;5072154;28;20025;-72
2021/05/28 03:04:21;;;;;;;0.20;0.20;;;10.90;99.40;;;;;;5072214;28;20029;-72
2021/05/28 03:06:47;;;;;;;0.20;0.20;;;11.00;98.30;;;;;;5072207;28;20020;-72
2021/05/28 03:09:12;;;;;;;0.20;0.20;;;11.00;98.20;;;;;;5072441;28;20491;-73
2021/05/28 03:11:38;;;;;;;0.20;0.20;;;10.90;97.60;;;;;;5054024;28;20063;-72
2021/05/28 03:14:04;;;;;;;0.45;0.45;;;10.80;98.80;;;;;;5072184;28;20029;-72
2021/05/28 03:16:32;;;;;;;0.10;0.10;;;10.90;98.70;;;;;;5054104;28;20024;-72
2021/05/28 03:19:03;;;;;;;0.38;0.38;;;10.90;98.70;;;;;;5072031;28;20358;-72
2021/05/28 03:23:59;;;;;;;0.20;0.20;;;10.80;99.50;;;;;;5076171;28;20028;-72
2021/05/28 03:26:26;;;;;;;0.20;0.20;;;10.70;98.90;;;;;;5076184;28;20017;-72
2021/05/28 03:28:53;;;;;;;0.20;0.20;;;10.70;99.60;;;;;;5058084;28;20111;-72
2021/05/28 03:31:20;;;;;;;0.20;0.20;;;10.60;99.90;;;;;;5076003;28;20066;-72
2021/05/28 03:33:46;;;;;;;0.20;0.20;;;10.60;99.90;;;;;;5075908;28;20364;-72
2021/05/28 03:36:13;;;;;;;0.20;0.20;;;10.50;99.90;;;;;;5075906;28;20027;-72
2021/05/28 03:38:39;;;;;;;0.52;0.35;;;10.60;99.90;;;;;;5075774;28;20021;-72
2021/05/28 03:41:05;;;;;;;0.20;0.20;;;10.50;99.90;;;;;;5075712;28;20021;-72
2021/05/28 03:43:32;;;;;;;0.17;0.17;;;10.30;99.90;;;;;;5075965;28;20028;-72
2021/05/28 03:45:58;;;;;;;0.20;0.20;;;10.30;99.90;;;;;;5075559;28;20024;-72
2021/05/28 03:48:24;;;;;;;0.20;0.20;;;10.40;99.90;;;;;;5075990;28;20028;-72
2021/05/28 03:50:50;;;;;;;0.20;0.20;;;10.30;99.90;;;;;;5075564;28;20430;-72
2021/05/28 03:53:16;;;;;;;0.20;0.20;;;10.30;99.90;;;;;;5075519;28;20048;-72
2021/05/28 03:55:41;;;;;;;0.20;0.20;;;10.40;99.90;;;;;;5057591;28;20028;-72
2021/05/28 03:58:07;;;;;;;0.20;0.20;;;10.50;99.90;;;;;;5057324;28;20028;-72
2021/05/28 04:00:33;;;;;;;0.20;0.20;;;10.50;99.90;;;;;;5075211;28;20036;-72
2021/05/28 04:02:58;;;;;;;0.13;0.13;;;10.60;99.90;;;;;;5075373;28;20028;-71
2021/05/28 04:05:24;;;;;;;0.20;0.20;;;10.70;99.90;;;;;;5075437;28;20025;-72
2021/05/28 04:07:50;;;;;;;0.20;0.20;;;10.60;99.90;;;;;;5075579;28;20024;-72
2021/05/28 04:10:16;;;;;;;0.20;0.20;;;10.80;99.90;;;;;;5057284;28;20031;-72
2021/05/28 04:12:42;;;;;;;0.20;0.20;;;10.80;99.90;;;;;;5075264;28;20021;-72
2021/05/28 04:15:09;;;;;;;0.20;0.20;;;10.90;99.90;;;;;;5057519;28;20496;-72
2021/05/28 04:17:35;;;;;;;0.20;0.20;;;10.90;99.90;;;;;;5074992;28;20029;-72
2021/05/28 04:20:02;;;;;;;0.17;0.17;;;10.90;99.90;;;;;;5074997;28;20043;-73
2021/05/28 04:22:27;;;;;;;0.10;0.10;;;10.90;99.90;;;;;;5056958;28;20480;-72
2021/05/28 04:24:53;;;;;;;0.10;0.10;;;10.90;99.90;;;;;;5057146;28;20017;-72
2021/05/28 04:27:19;;;;;;;0.20;0.20;;;10.80;99.90;;;;;;5057092;28;20056;-72
2021/05/28 04:29:45;;;;;;;0.20;0.20;;;10.80;99.90;;;;;;5074973;28;20116;-72
2021/05/28 04:32:10;;;;;;;0.20;0.20;;;11.00;99.90;;;;;;5073641;28;20028;-72
2021/05/28 04:34:37;;;;;;;0.20;0.20;;;11.10;99.90;;;;;;5074838;28;20467;-72
2021/05/28 04:37:03;;;;;;;0.20;0.20;;;10.90;99.90;;;;;;5056687;28;20021;-72
2021/05/28 04:39:29;;;;;;;0.15;0.15;;;10.80;99.90;;;;;;5074939;28;20086;-72
2021/05/28 04:41:55;;;;;;;0.20;0.20;;;10.70;99.90;;;;;;5056587;28;20025;-72
2021/05/28 04:44:21;;;;;;;0.93;0.93;;;10.70;99.90;;;;;;5074513;28;20024;-72
2021/05/28 04:46:47;;;;;;;0.20;0.20;;;10.70;99.90;;;;;;5056657;28;20534;-72
2021/05/28 04:49:13;;;;;;;0.32;0.30;;;10.70;99.90;;;;;;5074801;28;20086;-73
2021/05/28 04:51:39;;;;;;;0.20;0.20;;;10.80;99.90;;;;;;5056313;28;20024;-72
2021/05/28 04:54:05;;;;;;;0.20;0.20;;;10.70;99.90;;;;;;5074396;28;20138;-72
2021/05/28 04:56:31;;;;;;;0.20;0.20;;;10.80;99.90;;;;;;5074288;28;20099;-72
2021/05/28 04:58:57;;;;;;;0.20;0.20;;;10.70;99.90;;;;;;5056284;28;20036;-72
2021/05/28 05:01:23;;;;;;;0.20;0.20;;;10.50;99.90;;;;;;5086720;22;20044;-76
2021/05/28 05:03:49;;;;;;;0.20;0.20;;;10.40;99.90;;;;;;5072904;28;20017;-77
2021/05/28 05:06:15;;;;;;;0.20;0.20;;;10.30;99.90;;;;;;5037708;28;20024;-76
2021/05/28 05:08:41;;;;;;;0.20;0.20;;;10.30;99.90;;;;;;5073994;28;20394;-75
2021/05/28 05:11:07;;;;;;;0.30;0.30;;;10.40;99.90;;;;;;5055819;28;20430;-76
2021/05/28 05:13:33;;;;;;;0.22;0.22;;;10.40;99.90;;;;;;5055673;28;20111;-77
2021/05/28 05:15:59;;;;;;;0.15;0.15;;;10.50;99.90;;;;;;5055399;28;20508;-76
2021/05/28 05:18:25;;;;;;;0.20;0.20;;;10.30;99.90;;;;;;5073424;28;20062;-76
2021/05/28 05:20:51;;;;;;;0.22;0.22;;;10.10;99.90;;;;;;5073188;28;20637;-76
2021/05/28 05:23:18;;;;;;;0.25;0.25;;;10.10;99.90;;;;;;5073389;28;20078;-76
2021/05/28 05:25:44;;;;;;;0.20;0.20;;;10.00;99.90;;;;;;5055214;28;20024;-77
2021/05/28 05:28:09;;;;;;;0.10;0.10;;;10.20;99.90;;;;;;5073237;28;20025;-76
2021/05/28 05:30:35;;;;;;;0.20;0.20;;;10.40;99.90;;;;;;5055220;28;20024;-77
2021/05/28 05:33:01;;;;;;;0.20;0.20;;;10.60;99.90;;;;;;5055341;28;20024;-77
2021/05/28 05:35:27;;;;;;;0.20;0.20;;;10.80;99.90;;;;;;5038553;28;20504;-77
2021/05/28 05:37:53;;;;;;;0.30;0.30;;;10.90;99.90;;;;;;5072890;28;20035;-76
2021/05/28 05:40:18;;;;;;;0.15;0.15;;;10.90;99.90;;;;;;5054839;28;20020;-76
2021/05/28 05:42:45;;;;;;;0.45;0.45;;;11.00;99.90;;;;;;5037740;28;20020;-76
2021/05/28 05:45:13;;;;;;;0.25;0.25;;;11.20;99.90;;;;;;5054965;28;20020;-76
2021/05/28 05:47:40;;;;;;;0.20;0.20;;;11.30;99.90;;;;;;5053903;28;20377;-74
2021/05/28 05:50:06;;;;;;;0.20;0.20;;;11.40;98.40;;;;;;5054737;28;20418;-75
2021/05/28 05:52:32;;;;;;;0.32;0.32;;;11.60;98.70;;;;;;5054794;28;20027;-75
2021/05/28 05:54:58;;;;;;;3.85;1.13;;;11.70;97.00;;;;;;5072699;28;20033;-76
2021/05/28 05:57:24;;;;;;;0.20;0.20;;;11.80;94.10;;;;;;5072261;28;20058;-76
2021/05/28 05:59:49;;;;;;;0.15;0.15;;;12.10;93.00;;;;;;5072382;28;20078;-77
2021/05/28 06:02:15;;;;;;;0.20;0.20;;;12.20;93.00;;;;;;5072425;28;20024;-76
2021/05/28 06:04:41;;;;;;;0.20;0.20;;;12.30;88.10;;;;;;5072539;28;20090;-76
2021/05/28 06:07:06;;;;;;;0.20;0.20;;;12.40;90.00;;;;;;5072081;28;20021;-76
2021/05/28 06:09:32;;;;;;;0.20;0.20;;;12.50;88.20;;;;;;5072315;28;20096;-77
2021/05/28 06:11:59;;;;;;;0.20;0.20;;;12.40;84.90;;;;;;5072206;28;20047;-76
2021/05/28 06:14:28;;;;;;;0.20;0.20;;;12.60;87.20;;;;;;5054235;28;20020;-77
2021/05/28 06:16:53;;;;;;;0.10;0.10;;;12.80;87.80;;;;;;5082446;28;20031;-77
2021/05/28 06:19:19;;;;;;;0.20;0.20;;;13.00;88.30;;;;;;5062730;28;20020;-77
2021/05/28 06:21:45;;;;;;;0.40;0.40;;;13.10;88.90;;;;;;5076366;28;20348;-77
2021/05/28 06:24:12;;;;;;;0.10;0.10;;;13.20;84.40;;;;;;5082085;28;20025;-78
2021/05/28 06:26:38;;;;;;;0.10;0.10;;;13.30;81.90;;;;;;5072020;28;20028;-78
2021/05/28 06:29:06;;;;;;;0.20;0.20;;;13.50;81.30;;;;;;5072149;28;20020;-77
2021/05/28 06:31:32;;;;;;;0.20;0.20;;;13.50;82.00;;;;;;5055449;28;20029;-76
2021/05/28 06:33:58;;;;;;;0.10;0.10;;;13.50;80.60;;;;;;5092330;28;20024;-76
2021/05/28 06:36:25;;;;;;;0.20;0.20;;;13.50;81.50;;;;;;5073790;28;20020;-76
2021/05/28 06:38:51;;;;;;;0.20;0.20;;;13.50;80.30;;;;;;5091976;28;20059;-77
2021/05/28 06:41:17;;;;;;;0.20;0.20;;;13.70;80.80;;;;;;5055645;28;20093;-76
2021/05/28 06:43:43;;;;;;;0.10;0.10;;;13.80;79.70;;;;;;5073769;28;20441;-76
2021/05/28 06:46:09;;;;;;;0.10;0.10;;;13.90;78.20;;;;;;5053265;28;20112;-77
2021/05/28 06:48:34;;;;;;;0.17;0.17;;;14.00;77.60;;;;;;5071748;28;20100;-76
2021/05/28 06:51:00;;;;;;;0.20;0.20;;;14.00;75.20;;;;;;5071513;28;20051;-77
2021/05/28 06:53:27;;;;;;;0.32;0.32;;;14.00;75.10;;;;;;5071900;28;20126;-77
2021/05/28 06:55:52;;;;;;;0.52;0.52;;;13.70;76.10;;;;;;5052681;28;20048;-77
2021/05/28 06:58:20;;;;;;;0.13;0.13;;;13.70;77.50;;;;;;5071509;28;20427;-76
2021/05/28 07:00:47;;;;;;;0.15;0.15;;;13.90;76.60;;;;;;5053341;28;20040;-76
2021/05/28 07:03:13;;;;;;;0.30;0.30;;;13.80;75.80;;;;;;5071940;28;20020;-77
2021/05/28 07:05:39;;;;;;;0.20;0.20;;;13.90;75.50;;;;;;5071269;28;20078;-76
2021/05/28 07:08:05;;;;;;;0.10;0.10;;;14.10;75.20;;;;;;5070565;28;20078;-76
2021/05/28 07:10:31;;;;;;;0.10;0.10;;;14.30;75.10;;;;;;5052584;28;20029;-77
2021/05/28 07:12:57;;;;;;;0.20;0.20;;;14.60;74.10;;;;;;5070688;28;20039;-77
2021/05/28 07:15:23;;;;;;;0.10;0.10;;;14.70;73.50;;;;;;5070486;28;20056;-76
2021/05/28 07:17:48;;;;;;;0.20;0.20;;;14.80;73.20;;;;;;5070449;28;20028;-76
2021/05/28 07:20:15;;;;;;;0.20;0.20;;;15.00;72.80;;;;;;5052499;28;20017;-77
2021/05/28 07:22:41;;;;;;;0.10;0.10;;;15.30;72.30;;;;;;5072154;28;20013;-78
2021/05/28 07:25:08;;;;;;;0.20;0.20;;;15.50;71.40;;;;;;5053034;28;20024;-77
2021/05/28 07:27:34;;;;;;;0.20;0.20;;;15.70;70.90;;;;;;5038175;28;20479;-77
2021/05/28 07:30:01;;;;;;;1.90;0.52;;;15.80;70.40;;;;;;5070286;28;20089;-78
2021/05/28 07:32:28;;;;;;;0.20;0.20;;;15.60;70.50;;;;;;5073175;28;20474;-77
2021/05/28 07:34:54;;;;;;;0.55;0.55;;;14.90;71.30;;;;;;5053907;28;20032;-79
2021/05/28 07:37:20;;;;;;;0.20;0.20;;;14.90;72.70;;;;;;5051995;28;20031;-78
2021/05/28 07:39:46;;;;;;;0.13;0.13;;;14.80;72.50;;;;;;5052567;28;20020;-76
2021/05/28 07:42:15;;;;;;;0.20;0.20;;;14.40;72.80;;;;;;5070355;28;20468;-79
2021/05/28 07:44:42;;;;;;;0.20;0.20;;;14.30;73.10;;;;;;5073284;28;20047;-77
2021/05/28 07:47:08;;;;;;;0.17;0.17;;;14.10;73.80;;;;;;5052429;28;20488;-78
2021/05/28 07:49:34;;;;;;;5.57;1.00;;;14.50;73.00;;;;;;5052423;28;20017;-77
2021/05/28 07:52:00;;;;;;;0.10;0.10;;;15.00;71.20;;;;;;5052277;28;20506;-78
2021/05/28 07:54:26;;;;;;;0.20;0.20;;;15.70;70.20;;;;;;5070119;28;20016;-78
2021/05/28 07:56:52;;;;;;;0.10;0.10;;;16.10;66.50;;;;;;5070088;28;20028;-76
2021/05/28 07:59:17;;;;;;;0.10;0.10;;;16.40;65.90;;;;;;5073873;28;20040;-75
2021/05/28 08:01:44;;;;;;;0.10;0.10;;;16.70;64.60;;;;;;5052407;28;20031;-77
2021/05/28 08:04:10;;;;;;;0.20;0.20;;;16.00;65.10;;;;;;5071222;28;20025;-78
2021/05/28 08:06:36;;;;;;;0.20;0.20;;;15.90;65.40;;;;;;5071613;28;20127;-79
2021/05/28 08:09:02;;;;;;;0.20;0.20;;;15.50;67.30;;;;;;5074216;28;20051;-77
2021/05/28 08:11:28;;;;;;;0.20;0.20;;;15.00;69.90;;;;;;5073789;28;20460;-80
2021/05/28 08:13:54;;;;;;;0.20;0.20;;;14.70;70.40;;;;;;5055594;28;20043;-77
2021/05/28 08:16:20;;;;;;;0.10;0.10;;;14.80;70.90;;;;;;5055592;28;20028;-77
2021/05/28 08:18:46;;;;;;;0.20;0.20;;;15.60;69.10;;;;;;5073710;28;20024;-77
2021/05/28 08:21:12;;;;;;;0.15;0.15;;;16.10;66.50;;;;;;5055362;28;20025;-77
2021/05/28 08:23:39;;;;;;;0.20;0.20;;;15.90;65.40;;;;;;5059203;28;20016;-77
2021/05/28 08:26:05;;;;;;;0.43;0.43;;;15.60;66.30;;;;;;5055316;28;20025;-78
2021/05/28 08:28:34;;;;;;;0.20;0.20;;;15.40;67.00;;;;;;5055529;28;20124;-77
2021/05/28 08:31:00;;;;;;;0.15;0.15;;;15.30;67.90;;;;;;5073716;28;20488;-77
2021/05/28 08:33:26;;;;;;;0.10;0.10;;;15.60;68.50;;;;;;5075872;28;20086;-77
2021/05/28 08:35:52;;;;;;;1.00;1.00;;;15.90;67.10;;;;;;5073053;28;20025;-77
2021/05/28 08:38:17;;;;;;;0.20;0.20;;;15.90;66.20;;;;;;5055049;28;20036;-78
2021/05/28 08:40:43;;;;;;;0.30;0.30;;;16.60;65.70;;;;;;5073163;28;20032;-78
2021/05/28 08:43:09;;;;;;;0.10;0.10;;;16.90;63.50;;;;;;5074669;28;20028;-79
2021/05/28 08:45:39;;;;;;;0.10;0.10;;;17.20;60.50;;;;;;5055373;28;20024;-78
2021/05/28 08:48:07;;;;;;;1.05;0.25;;;17.40;61.00;;;;;;5057537;28;20394;-77
2021/05/28 08:50:33;;;;;;;0.30;0.30;;;17.60;61.40;;;;;;5054898;28;20506;-77
2021/05/28 08:53:09;;;;;;;1.20;1.20;;;16.90;59.00;;;;;;5073133;28;20024;-78
2021/05/28 08:55:37;;;;;;;0.90;0.40;;;17.00;59.70;;;;;;5072760;28;20024;-77
2021/05/28 08:58:07;;;;;;;0.20;0.20;;;16.90;60.00;;;;;;5074448;28;20488;-77
2021/05/28 09:00:34;;;;;;;0.10;0.10;;;17.10;59.30;;;;;;5072733;28;20385;-77
2021/05/28 09:03:24;;;;;;;0.30;0.30;;;17.60;58.40;;;;;;5074401;28;20074;-78
2021/05/28 09:05:51;;;;;;;0.10;0.10;;;18.20;58.50;;;;;;5053649;28;20073;-80
2021/05/28 09:08:24;;;;;;;0.65;0.30;;;18.00;59.50;;;;;;5072659;28;20488;-76
2021/05/28 09:10:50;;;;;;;0.10;0.10;;;17.60;60.00;;;;;;5054588;28;20024;-77
2021/05/28 09:13:18;;;;;;;0.55;0.55;;;17.20;62.10;;;;;;5072423;28;20081;-77
2021/05/28 09:15:46;;;;;;;0.10;0.10;;;17.40;61.20;;;;;;5054535;28;20025;-78
2021/05/28 09:18:13;;;;;;;0.93;0.93;;;17.80;57.80;;;;;;5077264;28;20040;-77
2021/05/28 09:20:40;;;;;;;0.10;0.10;;;17.60;57.40;;;;;;5074002;28;20453;-77
2021/05/28 09:23:08;;;;;;;0.40;0.40;;;17.50;58.20;;;;;;5073372;28;20025;-77
2021/05/28 09:25:55;;;;;;;0.20;0.20;;;17.50;58.00;;;;;;5072379;28;20057;-78
2021/05/28 09:28:22;;;;;;;0.30;0.30;;;17.30;58.80;;;;;;5054375;28;20028;-77
2021/05/28 09:31:00;;;;;;;0.20;0.20;;;17.40;59.70;;;;;;5067337;28;20028;-77
2021/05/28 09:33:30;;;;;;;0.10;0.10;;;17.90;59.20;;;;;;5054125;28;20067;-77
2021/05/28 09:36:07;;;;;;;0.32;0.28;;;17.80;59.30;;;;;;5077546;28;20021;-77
2021/05/28 09:38:33;;;;;;;0.13;0.13;;;18.60;58.30;;;;;;5038436;28;20025;-77
2021/05/28 09:40:58;;;;;;;0.38;0.38;;;18.70;56.30;;;;;;5072943;28;20137;-77
2021/05/28 09:43:25;;;;;;;0.80;0.75;;;18.90;57.50;;;;;;5073568;28;20022;-78
2021/05/28 09:45:52;;;;;;;0.20;0.20;;;19.50;56.10;;;;;;5069465;28;20028;-77
2021/05/28 09:48:27;;;;;;;0.20;0.20;;;19.90;54.30;;;;;;5074111;28;20028;-77
2021/05/28 09:50:56;;;;;;;0.20;0.20;;;19.90;54.00;;;;;;5072546;28;20040;-78
2021/05/28 09:53:30;;;;;;;0.10;0.10;;;20.00;53.60;;;;;;5072451;28;20115;-77
2021/05/28 09:55:58;;;;;;;0.15;0.15;;;19.20;53.50;;;;;;5054591;28;20484;-77
2021/05/28 09:58:25;;;;;;;0.20;0.20;;;18.60;55.50;;;;;;5072587;28;20028;-77
2021/05/28 10:00:51;;;;;;;0.17;0.17;;;18.00;56.60;;;;;;5072224;28;20060;-78
2021/05/28 10:03:24;;;;;;;0.10;0.10;;;17.70;58.10;;;;;;5072429;28;20036;-78
2021/05/28 10:05:55;;;;;;;0.10;0.10;;;18.50;58.60;;;;;;5054482;28;20449;-77
2021/05/28 10:08:23;;;;;;;0.10;0.10;;;19.20;54.20;;;;;;5054242;28;20503;-77
2021/05/28 10:10:51;;;;;;;0.10;0.10;;;19.40;53.40;;;;;;5072301;28;20207;-78
2021/05/28 10:13:18;;;;;;;0.10;0.10;;;19.30;53.00;;;;;;5054319;28;20426;-77
2021/05/28 10:15:46;;;;;;;0.10;0.10;;;18.90;52.30;;;;;;5053708;28;20040;-77
2021/05/28 10:18:13;;;;;;;0.10;0.10;;;18.40;53.70;;;;;;5072100;28;20025;-77
2021/05/28 10:20:42;;;;;;;0.10;0.10;;;18.10;55.40;;;;;;5055066;28;20024;-77
2021/05/28 10:23:10;;;;;;;0.10;0.10;;;18.60;55.70;;;;;;5055296;28;20017;-77
2021/05/28 10:25:37;;;;;;;0.30;0.30;;;18.60;53.30;;;;;;5053886;28;20078;-78
2021/05/28 10:28:07;;;;;;;2.30;0.52;;;19.20;53.40;;;;;;5072024;28;20032;-78
2021/05/28 10:30:39;;;;;;;0.10;0.10;;;19.40;51.20;;;;;;5071799;28;20115;-77
2021/05/28 10:33:46;;;;;;;0.28;0.28;;;19.70;50.80;;;;;;5053811;28;20039;-77
2021/05/28 10:36:11;;;;;;;0.10;0.10;;;19.80;49.00;;;;;;5053848;28;20020;-77
2021/05/28 10:38:41;;;;;;;0.15;0.15;;;20.30;49.00;;;;;;5037031;28;20136;-79
2021/05/28 10:41:07;;;;;;;0.35;0.35;;;20.30;48.50;;;;;;5053718;28;20017;-79
2021/05/28 10:43:56;;;;;;;0.00;0.00;;;20.30;50.10;;;;;;5053948;28;20098;-77
2021/05/28 10:46:22;;;;;;;0.10;0.10;;;20.70;52.20;;;;;;5071279;28;20200;-77
2021/05/28 10:48:49;;;;;;;0.43;0.43;;;21.00;53.30;;;;;;5071709;28;20100;-78
2021/05/28 10:51:23;;;;;;;0.10;0.10;;;21.00;53.10;;;;;;5053338;28;20026;-77
2021/05/28 10:53:52;;;;;;;0.10;0.10;;;20.40;53.60;;;;;;5071773;28;20032;-77
2021/05/28 10:56:19;;;;;;;0.10;0.10;;;19.70;55.10;;;;;;5071898;28;20070;-77
2021/05/28 10:59:03;;;;;;;0.10;0.10;;;19.20;56.00;;;;;;5071281;28;20036;-77
2021/05/28 11:01:32;;;;;;;0.10;0.10;;;19.50;55.40;;;;;;5081831;23;20056;-88
2021/05/28 11:04:02;;;;;;;0.00;0.00;;;20.00;54.50;;;;;;5056057;28;20107;-88
2021/05/28 11:06:29;;;;;;;0.10;0.10;;;20.10;56.20;;;;;;5038612;28;20396;-88
2021/05/28 11:09:33;;;;;;;0.20;0.20;;;19.70;53.60;;;;;;5039992;28;20550;-89
2021/05/28 11:12:14;;;;;;;0.10;0.10;;;19.60;54.90;;;;;;5038698;28;20067;-89
2021/05/28 11:15:09;;;;;;;0.20;0.20;;;19.80;54.60;;;;;;5038779;28;20032;-89
2021/05/28 11:18:03;;;;;;;0.40;0.40;;;20.30;53.10;;;;;;5038588;28;20411;-88
2021/05/28 11:20:44;;;;;;;0.80;0.80;;;19.90;52.50;;;;;;5038075;28;20370;-88
2021/05/28 11:23:21;;;;;;;0.13;0.13;;;19.60;54.40;;;;;;5038254;28;20054;-89
2021/05/28 11:25:54;;;;;;;0.10;0.10;;;19.10;55.50;;;;;;5038990;28;20025;-89
2021/05/28 11:28:24;;;;;;;0.22;0.22;;;19.20;56.80;;;;;;5038561;28;20032;-88
2021/05/28 11:30:59;;;;;;;0.40;0.40;;;19.90;55.20;;;;;;5038207;28;20074;-89
2021/05/28 11:33:38;;;;;;;0.10;0.10;;;20.60;52.00;;;;;;5038849;28;20363;-88
2021/05/28 11:36:41;;;;;;;0.73;0.40;;;20.90;53.10;;;;;;5038358;28;20048;-88
2021/05/28 11:39:25;;;;;;;0.10;0.10;;;20.20;53.80;;;;;;5039401;28;20024;-88
2021/05/28 11:42:19;;;;;;;0.15;0.15;;;19.70;54.90;;;;;;5040740;28;20054;-88
2021/05/28 11:44:55;;;;;;;0.10;0.10;;;20.10;54.40;;;;;;5058224;28;20020;-88
2021/05/28 11:47:22;;;;;;;0.10;0.10;;;20.10;54.30;;;;;;5062308;28;20026;-88
2021/05/28 11:49:48;;;;;;;0.10;0.10;;;20.30;53.40;;;;;;5062088;28;20027;-89
2021/05/28 11:52:17;;;;;;;0.25;0.25;;;20.60;52.10;;;;;;5062536;28;20020;-88
2021/05/28 11:54:47;;;;;;;0.15;0.15;;;20.70;53.20;;;;;;5062071;28;20084;-89
2021/05/28 11:57:23;;;;;;;0.10;0.10;;;20.80;52.60;;;;;;5061564;28;20078;-88
2021/05/28 11:59:56;;;;;;;0.10;0.10;;;20.90;50.80;;;;;;5062583;28;20020;-89
2021/05/28 12:02:43;;;;;;;1.17;0.93;;;21.20;52.50;;;;;;5062032;28;20042;-88
2021/05/28 12:05:26;;;;;;;0.08;0.08;;;21.20;49.30;;;;;;5061856;28;20024;-88
2021/05/28 12:08:03;;;;;;;0.30;0.30;;;20.80;50.60;;;;;;5062170;28;20025;-89
2021/05/28 12:10:32;;;;;;;0.25;0.25;;;20.30;52.00;;;;;;5064218;28;20143;-89
2021/05/28 12:13:07;;;;;;;0.10;0.10;;;19.50;52.90;;;;;;5064846;28;20020;-89
2021/05/28 12:15:42;;;;;;;0.20;0.20;;;19.50;54.60;;;;;;5062436;28;20021;-90
2021/05/28 12:18:30;;;;;;;0.52;0.52;;;19.40;55.60;;;;;;5060998;28;20040;-89
2021/05/28 12:20:58;;;;;;;0.15;0.15;;;19.30;55.30;;;;;;5061118;28;20031;-90
2021/05/28 12:23:28;;;;;;;1.58;0.65;;;19.50;55.40;;;;;;5061604;28;20024;-90
2021/05/28 12:26:05;;;;;;;0.08;0.08;;;19.50;54.90;;;;;;5061617;28;20469;-89
2021/05/28 12:28:52;;;;;;;0.20;0.20;;;19.70;56.30;;;;;;5061164;28;20031;-90
2021/05/28 12:31:46;;;;;;;2.72;1.85;;;19.70;58.60;;;;;;5061301;28;20554;-89
2021/05/28 12:34:18;;;;;;;0.10;0.10;;;19.70;58.70;;;;;;5061628;28;20125;-89
2021/05/28 12:36:49;;;;;;;0.40;0.40;;;19.70;57.90;;;;;;5061236;28;20651;-89
2021/05/28 12:39:19;;;;;;;;;;;19.60;58.80;;;;;;5062876;28;20055;-89
2021/05/28 12:41:54;;;;;;;0.63;0.60;;;19.70;57.60;;;;;;5064449;28;19911;-89
2021/05/28 12:44:26;;;;;;;0.28;0.28;;;19.80;57.70;;;;;;5062451;28;20032;-89
2021/05/28 12:47:06;;;;;;;1.75;0.43;;;19.70;57.40;;;;;;5062696;28;20172;-89
2021/05/28 12:49:34;;;;;;;0.52;0.52;;;19.90;57.60;;;;;;5063028;28;20024;-89
2021/05/28 12:52:16;;;;;;;0.73;0.73;;;19.90;56.70;;;;;;5060285;28;20498;-89
2021/05/28 12:55:00;;;;;;;0.10;0.10;;;19.70;56.80;;;;;;5061363;28;20472;-89
2021/05/28 12:57:26;;;;;;;0.22;0.22;;;19.70;57.10;;;;;;5060638;28;20039;-89